createdAt,value
2023-05-07T00:00:20.431Z,4.51
2023-05-07T00:01:20.486Z,4.42
2023-05-07T00:02:20.413Z,4.74
2023-05-07T00:03:20.439Z,4.61
2023-05-07T00:04:20.528Z,3.96
2023-05-07T00:05:20.488Z,4.70
2023-05-07T00:06:20.391Z,4.07
2023-05-07T00:07:20.386Z,4.42
2023-05-07T00:08:20.386Z,4.23
2023-05-07T00:09:20.391Z,3.98
2023-05-07T00:10:20.397Z,3.35
2023-05-07T00:11:20.481Z,3.73
2023-05-07T00:12:20.535Z,4.89
2023-05-07T00:13:20.662Z,4.50
2023-05-07T00:14:20.642Z,4.11
2023-05-07T00:15:20.706Z,4.60
2023-05-07T00:16:20.825Z,4.75
2023-05-07T00:17:21.215Z,4.03
2023-05-07T00:18:20.873Z,4.34
2023-05-07T00:19:20.940Z,4.05
2023-05-07T00:20:20.984Z,3.71
2023-05-07T00:21:21.031Z,4.37
2023-05-07T00:22:21.113Z,4.05
2023-05-07T00:23:21.142Z,4.14
2023-05-07T00:24:21.200Z,3.81
2023-05-07T00:25:21.255Z,3.66
2023-05-07T00:26:21.302Z,3.93
2023-05-07T00:27:21.464Z,4.29
2023-05-07T00:28:21.423Z,4.49
2023-05-07T00:29:21.464Z,4.20
2023-05-07T00:30:21.562Z,4.12
2023-05-07T00:31:21.714Z,3.95
2023-05-07T00:32:21.660Z,4.53
2023-05-07T00:33:21.670Z,4.42
2023-05-07T00:34:21.723Z,4.32
2023-05-07T00:35:21.803Z,4.26
2023-05-07T00:36:21.841Z,5.19
2023-05-07T00:37:21.922Z,4.18
2023-05-07T00:38:21.961Z,3.97
2023-05-07T00:39:22.003Z,3.95
2023-05-07T00:40:22.064Z,4.57
2023-05-07T00:41:22.135Z,3.67
2023-05-07T00:42:22.191Z,3.84
2023-05-07T00:43:22.344Z,4.46
2023-05-07T00:44:22.322Z,4.82
2023-05-07T00:45:22.372Z,4.22
2023-05-07T00:46:22.507Z,4.16
2023-05-07T00:47:22.459Z,4.12
2023-05-07T00:48:22.450Z,4.80
2023-05-07T00:49:22.451Z,4.11
2023-05-07T00:50:22.484Z,4.52
2023-05-07T00:51:22.560Z,4.40
2023-05-07T00:52:22.616Z,4.48
2023-05-07T00:53:22.678Z,5.02
2023-05-07T00:54:23.879Z,4.14
2023-05-07T00:55:22.805Z,4.68
2023-05-07T00:56:22.885Z,4.30
2023-05-07T00:57:22.946Z,4.51
2023-05-07T00:58:23.008Z,4.65
2023-05-07T00:59:23.196Z,4.27
2023-05-07T01:00:23.166Z,4.16
2023-05-07T01:01:23.230Z,4.14
2023-05-07T01:02:23.309Z,4.51
2023-05-07T01:03:23.338Z,4.31
2023-05-07T01:04:23.460Z,4.25
2023-05-07T01:05:23.488Z,4.72
2023-05-07T01:06:23.550Z,4.63
2023-05-07T01:07:23.625Z,5.04
2023-05-07T01:08:23.692Z,4.49
2023-05-07T01:09:23.748Z,5.01
2023-05-07T01:10:23.818Z,4.93
2023-05-07T01:11:23.885Z,4.88
2023-05-07T01:12:23.942Z,4.89
2023-05-07T01:13:24.136Z,4.93
2023-05-07T01:14:24.015Z,4.61
2023-05-07T01:15:24.164Z,5.59
2023-05-07T01:16:24.134Z,5.53
2023-05-07T01:17:24.231Z,4.82
2023-05-07T01:18:24.248Z,4.80
2023-05-07T01:19:24.317Z,4.58
2023-05-07T01:20:24.369Z,4.36
2023-05-07T01:21:24.421Z,4.63
2023-05-07T01:22:24.512Z,4.87
2023-05-07T01:23:24.495Z,5.10
2023-05-07T01:24:24.572Z,4.89
2023-05-07T01:25:24.652Z,4.68
2023-05-07T01:26:24.741Z,4.77
2023-05-07T01:27:24.801Z,5.23
2023-05-07T01:28:24.862Z,5.28
2023-05-07T01:29:24.937Z,4.60
2023-05-07T01:30:24.995Z,4.94
2023-05-07T01:31:25.114Z,4.59
2023-05-07T01:32:25.145Z,4.66
2023-05-07T01:33:25.188Z,5.09
2023-05-07T01:34:25.269Z,5.29
2023-05-07T01:35:25.331Z,5.03
2023-05-07T01:36:25.381Z,4.88
2023-05-07T01:37:25.464Z,4.62
2023-05-07T01:38:25.516Z,4.63
2023-05-07T01:39:25.590Z,4.81
2023-05-07T01:40:25.684Z,4.90
2023-05-07T01:41:25.752Z,5.22
2023-05-07T01:42:25.811Z,5.16
2023-05-07T01:43:25.873Z,4.72
2023-05-07T01:44:25.960Z,5.48
2023-05-07T01:45:26.019Z,5.02
2023-05-07T01:46:26.162Z,5.64
2023-05-07T01:47:26.366Z,5.22
2023-05-07T01:48:26.239Z,4.78
2023-05-07T01:49:26.313Z,4.33
2023-05-07T01:50:26.409Z,5.62
2023-05-07T01:51:26.462Z,4.12
2023-05-07T01:52:26.573Z,5.02
2023-05-07T01:53:26.577Z,5.05
2023-05-07T01:54:26.641Z,5.01
2023-05-07T01:55:26.692Z,5.00
2023-05-07T01:56:26.759Z,5.23
2023-05-07T01:57:26.858Z,5.15
2023-05-07T01:58:26.883Z,5.25
2023-05-07T01:59:26.940Z,4.93
2023-05-07T02:00:27.006Z,4.43
2023-05-07T02:01:27.111Z,5.29
2023-05-07T02:02:27.252Z,4.62
2023-05-07T02:03:27.436Z,5.52
2023-05-07T02:04:27.313Z,4.99
2023-05-07T02:05:27.382Z,4.74
2023-05-07T02:06:27.449Z,4.81
2023-05-07T02:07:27.515Z,4.51
2023-05-07T02:08:27.614Z,4.26
2023-05-07T02:09:27.648Z,4.38
2023-05-07T02:10:27.713Z,4.74
2023-05-07T02:11:27.787Z,4.54
2023-05-07T02:12:27.861Z,5.24
2023-05-07T02:13:27.945Z,3.93
2023-05-07T02:14:28.016Z,5.22
2023-05-07T02:15:28.104Z,4.24
2023-05-07T02:16:28.244Z,4.65
2023-05-07T02:17:28.277Z,5.30
2023-05-07T02:18:28.333Z,4.53
2023-05-07T02:19:28.479Z,5.43
2023-05-07T02:20:28.455Z,4.85
2023-05-07T02:21:30.590Z,4.66
2023-05-07T02:22:28.523Z,5.22
2023-05-07T02:23:28.531Z,4.53
2023-05-07T02:24:28.530Z,5.16
2023-05-07T02:25:28.529Z,5.29
2023-05-07T02:26:28.551Z,5.51
2023-05-07T02:27:28.552Z,5.00
2023-05-07T02:28:28.561Z,5.28
2023-05-07T02:29:28.600Z,4.99
2023-05-07T02:30:28.572Z,5.44
2023-05-07T02:31:28.638Z,5.58
2023-05-07T02:32:28.617Z,5.59
2023-05-07T02:33:28.597Z,4.97
2023-05-07T02:34:28.642Z,5.37
2023-05-07T02:35:28.664Z,5.14
2023-05-07T02:36:28.621Z,5.55
2023-05-07T02:37:28.634Z,5.70
2023-05-07T02:38:28.650Z,5.44
2023-05-07T02:39:28.650Z,5.79
2023-05-07T02:40:28.667Z,5.95
2023-05-07T02:41:28.668Z,5.44
2023-05-07T02:42:28.791Z,5.49
2023-05-07T02:43:28.695Z,5.56
2023-05-07T02:44:28.710Z,5.94
2023-05-07T02:45:28.833Z,5.33
2023-05-07T02:46:28.964Z,4.69
2023-05-07T02:47:28.808Z,5.35
2023-05-07T02:48:28.755Z,4.85
2023-05-07T02:49:28.788Z,5.36
2023-05-07T02:50:28.777Z,4.77
2023-05-07T02:51:29.092Z,4.98
2023-05-07T02:52:28.816Z,4.88
2023-05-07T02:53:28.829Z,5.14
2023-05-07T02:54:28.839Z,4.92
2023-05-07T02:55:28.838Z,4.59
2023-05-07T02:56:28.857Z,5.48
2023-05-07T02:57:28.871Z,4.92
2023-05-07T02:58:28.901Z,5.22
2023-05-07T02:59:28.925Z,4.93
2023-05-07T03:00:28.932Z,5.48
2023-05-07T03:01:28.978Z,5.41
2023-05-07T03:02:28.993Z,4.89
2023-05-07T03:03:28.967Z,4.19
2023-05-07T03:04:29.046Z,4.97
2023-05-07T03:05:28.999Z,4.65
2023-05-07T03:06:29.017Z,5.00
2023-05-07T03:07:29.159Z,5.59
2023-05-07T03:08:29.034Z,5.20
2023-05-07T03:09:29.056Z,4.76
2023-05-07T03:10:29.085Z,5.36
2023-05-07T03:11:29.114Z,4.73
2023-05-07T03:12:29.156Z,4.99
2023-05-07T03:13:29.180Z,5.12
2023-05-07T03:14:29.176Z,4.60
2023-05-07T03:15:29.211Z,4.33
2023-05-07T03:16:29.356Z,4.51
2023-05-07T03:17:29.365Z,5.67
2023-05-07T03:18:29.475Z,6.09
2023-05-07T03:19:29.519Z,5.35
2023-05-07T03:20:29.635Z,5.33
2023-05-07T03:21:29.721Z,5.26
2023-05-07T03:22:29.841Z,4.81
2023-05-07T03:23:29.985Z,4.86
2023-05-07T03:24:29.956Z,5.08
2023-05-07T03:25:30.041Z,4.86
2023-05-07T03:26:30.082Z,5.01
2023-05-07T03:27:30.150Z,5.07
2023-05-07T03:28:30.172Z,4.92
2023-05-07T03:29:30.227Z,4.92
2023-05-07T03:30:30.297Z,5.52
2023-05-07T03:31:30.386Z,5.98
2023-05-07T03:32:30.502Z,5.48
2023-05-07T03:33:30.548Z,5.15
2023-05-07T03:34:30.640Z,5.56
2023-05-07T03:35:30.753Z,5.36
2023-05-07T03:36:30.839Z,6.00
2023-05-07T03:37:30.990Z,5.68
2023-05-07T03:38:31.033Z,5.51
2023-05-07T03:39:31.262Z,5.90
2023-05-07T03:40:31.236Z,5.31
2023-05-07T03:41:31.352Z,5.39
2023-05-07T03:42:31.423Z,4.89
2023-05-07T03:43:31.509Z,5.53
2023-05-07T03:44:31.588Z,5.66
2023-05-07T03:45:31.666Z,4.62
2023-05-07T03:46:31.764Z,5.30
2023-05-07T03:47:31.921Z,5.89
2023-05-07T03:48:31.872Z,5.31
2023-05-07T03:49:31.954Z,5.59
2023-05-07T03:50:31.999Z,4.66
2023-05-07T03:51:32.111Z,5.86
2023-05-07T03:52:32.264Z,5.77
2023-05-07T03:53:32.194Z,6.42
2023-05-07T03:54:32.251Z,5.79
2023-05-07T03:55:32.452Z,6.05
2023-05-07T03:56:32.389Z,6.28
2023-05-07T03:57:32.451Z,6.58
2023-05-07T03:58:32.490Z,6.78
2023-05-07T03:59:32.585Z,6.80
2023-05-07T04:00:32.680Z,6.91
2023-05-07T04:01:32.840Z,23.71
2023-05-07T04:02:32.929Z,27.74
2023-05-07T04:03:33.037Z,17.40
2023-05-07T04:04:33.029Z,10.50
2023-05-07T04:05:33.118Z,9.62
2023-05-07T04:06:33.180Z,6.61
2023-05-07T04:07:33.305Z,6.01
2023-05-07T04:08:33.310Z,8.36
2023-05-07T04:09:33.374Z,7.19
2023-05-07T04:10:33.436Z,8.39
2023-05-07T04:11:33.602Z,13.68
2023-05-07T04:12:33.573Z,13.94
2023-05-07T04:13:33.643Z,17.57
2023-05-07T04:14:33.724Z,13.53
2023-05-07T04:15:33.797Z,27.73
2023-05-07T04:16:34.024Z,36.60
2023-05-07T04:17:33.995Z,50.15
2023-05-07T04:18:34.075Z,25.82
2023-05-07T04:19:34.157Z,25.44
2023-05-07T04:20:34.239Z,51.59
2023-05-07T04:21:34.340Z,43.92
2023-05-07T04:22:34.622Z,28.03
2023-05-07T04:23:34.480Z,16.60
2023-05-07T04:24:34.545Z,12.44
2023-05-07T04:25:34.633Z,25.64
2023-05-07T04:26:34.733Z,16.86
2023-05-07T04:27:34.865Z,13.99
2023-05-07T04:28:34.905Z,12.05
2023-05-07T04:29:34.971Z,10.17
2023-05-07T04:30:35.076Z,9.57
2023-05-07T04:31:35.953Z,7.00
2023-05-07T04:32:35.153Z,7.18
2023-05-07T04:33:35.200Z,6.66
2023-05-07T04:34:35.513Z,6.27
2023-05-07T04:35:35.320Z,7.03
2023-05-07T04:36:35.356Z,6.33
2023-05-07T04:37:35.405Z,6.12
2023-05-07T04:38:35.431Z,7.53
2023-05-07T04:39:35.467Z,5.79
2023-05-07T04:40:35.500Z,6.92
2023-05-07T04:41:35.554Z,7.18
2023-05-07T04:42:35.631Z,5.92
2023-05-07T04:43:35.750Z,6.77
2023-05-07T04:44:35.821Z,6.80
2023-05-07T04:45:35.947Z,6.18
2023-05-07T04:46:36.186Z,6.48
2023-05-07T04:47:36.104Z,6.72
2023-05-07T04:48:36.080Z,6.43
2023-05-07T04:49:36.093Z,6.55
2023-05-07T04:50:36.127Z,7.01
2023-05-07T04:51:36.184Z,6.10
2023-05-07T04:52:36.293Z,6.16
2023-05-07T04:53:36.336Z,6.72
2023-05-07T04:54:36.406Z,7.32
2023-05-07T04:55:36.496Z,6.68
2023-05-07T04:56:36.575Z,6.89
2023-05-07T04:57:36.693Z,6.57
2023-05-07T04:58:36.720Z,6.34
2023-05-07T04:59:36.800Z,6.79
2023-05-07T05:00:36.851Z,6.38
2023-05-07T05:01:36.995Z,7.29
2023-05-07T05:02:37.033Z,6.58
2023-05-07T05:03:37.179Z,6.80
2023-05-07T05:04:37.111Z,6.72
2023-05-07T05:05:37.165Z,7.04
2023-05-07T05:06:37.237Z,6.90
2023-05-07T05:07:37.320Z,7.58
2023-05-07T05:08:37.395Z,7.61
2023-05-07T05:09:37.443Z,6.91
2023-05-07T05:10:37.497Z,7.94
2023-05-07T05:11:37.561Z,8.33
2023-05-07T05:12:37.711Z,7.45
2023-05-07T05:13:37.654Z,7.47
2023-05-07T05:14:37.722Z,7.45
2023-05-07T05:15:37.779Z,7.15
2023-05-07T05:16:37.912Z,7.96
2023-05-07T05:17:37.935Z,7.81
2023-05-07T05:18:37.947Z,7.60
2023-05-07T05:19:38.006Z,7.50
2023-05-07T05:20:38.067Z,7.83
2023-05-07T05:21:38.131Z,7.52
2023-05-07T05:22:38.186Z,7.40
2023-05-07T05:23:38.230Z,7.07
2023-05-07T05:24:38.273Z,7.84
2023-05-07T05:25:38.380Z,7.75
2023-05-07T05:26:38.390Z,7.49
2023-05-07T05:27:38.432Z,7.49
2023-05-07T05:28:38.417Z,7.46
2023-05-07T05:29:38.435Z,7.75
2023-05-07T05:30:38.467Z,7.73
2023-05-07T05:31:38.572Z,8.44
2023-05-07T05:32:38.590Z,8.50
2023-05-07T05:33:38.563Z,8.81
2023-05-07T05:34:38.614Z,10.86
2023-05-07T05:35:38.601Z,14.00
2023-05-07T05:36:38.637Z,15.14
2023-05-07T05:37:38.688Z,15.34
2023-05-07T05:38:38.731Z,17.84
2023-05-07T05:39:38.758Z,18.93
2023-05-07T05:40:38.800Z,20.17
2023-05-07T05:41:38.818Z,21.73
2023-05-07T05:42:38.851Z,22.16
2023-05-07T05:43:38.865Z,23.11
2023-05-07T05:44:38.954Z,22.81
2023-05-07T05:45:38.897Z,23.18
2023-05-07T05:46:38.935Z,21.74
2023-05-07T05:47:39.074Z,19.28
2023-05-07T05:48:39.142Z,17.77
2023-05-07T05:49:38.938Z,16.02
2023-05-07T05:50:38.958Z,16.26
2023-05-07T05:51:39.015Z,17.22
2023-05-07T05:52:39.347Z,15.08
2023-05-07T05:53:39.036Z,16.78
2023-05-07T05:54:39.049Z,15.08
2023-05-07T05:55:39.049Z,13.74
2023-05-07T05:56:39.046Z,12.96
2023-05-07T05:57:39.029Z,14.67
2023-05-07T05:58:39.034Z,14.83
2023-05-07T05:59:39.961Z,14.39
2023-05-07T06:00:39.034Z,14.74
2023-05-07T06:01:39.063Z,17.82
2023-05-07T06:02:39.293Z,17.25
2023-05-07T06:03:39.124Z,20.01
2023-05-07T06:04:39.098Z,21.11
2023-05-07T06:05:39.076Z,18.19
2023-05-07T06:06:39.076Z,14.39
2023-05-07T06:07:39.105Z,13.21
2023-05-07T06:08:39.084Z,10.66
2023-05-07T06:09:39.084Z,10.05
2023-05-07T06:10:39.113Z,9.29
2023-05-07T06:11:39.057Z,9.96
2023-05-07T06:12:39.131Z,10.25
2023-05-07T06:13:39.061Z,9.65
2023-05-07T06:14:39.051Z,10.10
2023-05-07T06:15:39.110Z,10.11
2023-05-07T06:16:39.300Z,9.34
2023-05-07T06:17:39.265Z,9.35
2023-05-07T06:18:39.228Z,10.40
2023-05-07T06:19:39.315Z,9.20
2023-05-07T06:20:39.331Z,8.38
2023-05-07T06:21:39.347Z,8.62
2023-05-07T06:22:39.390Z,7.90
2023-05-07T06:23:40.738Z,7.88
2023-05-07T06:24:39.377Z,8.07
2023-05-07T06:25:39.386Z,7.58
2023-05-07T06:26:39.387Z,7.53
2023-05-07T06:27:39.376Z,8.05
2023-05-07T06:28:39.370Z,7.72
2023-05-07T06:29:39.365Z,8.19
2023-05-07T06:30:39.344Z,7.27
2023-05-07T06:31:39.387Z,7.09
2023-05-07T06:32:39.372Z,7.29
2023-05-07T06:33:39.340Z,7.22
2023-05-07T06:34:39.393Z,7.01
2023-05-07T06:35:39.511Z,8.04
2023-05-07T06:36:39.510Z,7.25
2023-05-07T06:37:39.526Z,7.04
2023-05-07T06:38:39.511Z,8.35
2023-05-07T06:39:39.541Z,7.53
2023-05-07T06:40:39.550Z,8.00
2023-05-07T06:41:39.548Z,8.22
2023-05-07T06:42:39.575Z,7.44
2023-05-07T06:43:39.548Z,7.02
2023-05-07T06:44:39.526Z,7.61
2023-05-07T06:45:39.513Z,7.16
2023-05-07T06:46:39.588Z,7.89
2023-05-07T06:47:39.571Z,6.97
2023-05-07T06:48:39.472Z,7.06
2023-05-07T06:49:39.462Z,7.39
2023-05-07T06:50:39.435Z,7.30
2023-05-07T06:51:39.435Z,7.55
2023-05-07T06:52:39.469Z,7.02
2023-05-07T06:53:39.397Z,7.67
2023-05-07T06:54:39.370Z,7.63
2023-05-07T06:55:39.359Z,7.54
2023-05-07T06:56:39.315Z,7.53
2023-05-07T06:57:39.336Z,8.39
2023-05-07T06:58:39.337Z,8.37
2023-05-07T06:59:39.332Z,7.86
2023-05-07T07:00:39.359Z,8.28
2023-05-07T07:01:39.772Z,9.14
2023-05-07T07:02:39.421Z,9.15
2023-05-07T07:03:39.358Z,9.21
2023-05-07T07:04:39.764Z,8.18
2023-05-07T07:05:39.284Z,8.75
2023-05-07T07:06:39.271Z,8.78
2023-05-07T07:07:39.416Z,8.08
2023-05-07T07:08:39.281Z,8.47
2023-05-07T07:09:39.272Z,9.14
2023-05-07T07:10:39.267Z,7.99
2023-05-07T07:11:39.247Z,7.76
2023-05-07T07:12:39.316Z,8.24
2023-05-07T07:13:39.195Z,7.04
2023-05-07T07:14:39.165Z,7.81
2023-05-07T07:15:39.126Z,7.58
2023-05-07T07:16:39.274Z,7.26
2023-05-07T07:17:39.182Z,7.68
2023-05-07T07:18:39.118Z,7.23
2023-05-07T07:19:39.110Z,7.49
2023-05-07T07:20:39.121Z,7.24
2023-05-07T07:21:39.122Z,6.95
2023-05-07T07:22:39.119Z,7.46
2023-05-07T07:23:39.207Z,6.96
2023-05-07T07:24:39.097Z,7.75
2023-05-07T07:25:39.108Z,6.74
2023-05-07T07:26:39.099Z,6.47
2023-05-07T07:27:39.120Z,6.78
2023-05-07T07:28:39.118Z,7.17
2023-05-07T07:29:39.086Z,7.50
2023-05-07T07:30:39.092Z,7.56
2023-05-07T07:31:39.179Z,7.56
2023-05-07T07:32:39.152Z,8.43
2023-05-07T07:33:39.111Z,7.63
2023-05-07T07:34:39.149Z,6.74
2023-05-07T07:35:39.119Z,7.04
2023-05-07T07:36:46.279Z,6.87
2023-05-07T07:37:39.052Z,6.70
2023-05-07T07:38:38.976Z,7.18
2023-05-07T07:39:39.007Z,7.90
2023-05-07T07:40:38.850Z,7.38
2023-05-07T07:41:38.796Z,7.24
2023-05-07T07:42:38.780Z,7.39
2023-05-07T07:43:38.676Z,7.94
2023-05-07T07:44:38.620Z,6.97
2023-05-07T07:45:41.065Z,8.80
2023-05-07T07:46:38.557Z,7.55
2023-05-07T07:47:38.589Z,7.90
2023-05-07T07:48:38.420Z,6.75
2023-05-07T07:49:38.348Z,7.08
2023-05-07T07:50:45.177Z,6.83
2023-05-07T07:51:38.244Z,7.33
2023-05-07T07:52:38.193Z,7.08
2023-05-07T07:53:38.125Z,7.07
2023-05-07T07:54:38.074Z,7.25
2023-05-07T07:55:38.030Z,7.37
2023-05-07T07:56:37.944Z,6.91
2023-05-07T07:57:37.883Z,7.18
2023-05-07T07:58:37.835Z,6.67
2023-05-07T07:59:37.791Z,7.17
2023-05-07T08:00:37.735Z,7.12
2023-05-07T08:01:37.721Z,6.87
2023-05-07T08:02:37.741Z,6.22
2023-05-07T08:03:37.731Z,7.37
2023-05-07T08:04:37.775Z,6.68
2023-05-07T08:05:37.450Z,5.44
2023-05-07T08:06:37.386Z,5.30
2023-05-07T08:07:37.319Z,5.49
2023-05-07T08:08:37.256Z,4.78
2023-05-07T08:09:37.183Z,6.94
2023-05-07T08:10:37.123Z,7.36
2023-05-07T08:11:37.140Z,7.38
2023-05-07T08:12:37.020Z,7.14
2023-05-07T08:13:36.908Z,6.03
2023-05-07T08:14:36.834Z,5.31
2023-05-07T08:15:36.776Z,4.81
2023-05-07T08:16:36.688Z,4.27
2023-05-07T08:17:36.658Z,4.93
2023-05-07T08:18:36.514Z,4.81
2023-05-07T08:19:36.444Z,4.97
2023-05-07T08:20:36.372Z,5.51
2023-05-07T08:21:36.278Z,5.96
2023-05-07T08:22:36.235Z,7.68
2023-05-07T08:23:36.129Z,8.16
2023-05-07T08:24:36.046Z,7.75
2023-05-07T08:25:36.000Z,7.25
2023-05-07T08:26:35.889Z,8.41
2023-05-07T08:27:35.915Z,7.45
2023-05-07T08:28:35.773Z,6.61
2023-05-07T08:29:35.741Z,5.54
2023-05-07T08:30:35.706Z,5.78
2023-05-07T08:31:35.652Z,5.68
2023-05-07T08:32:35.694Z,5.00
2023-05-07T08:33:35.610Z,5.41
2023-05-07T08:34:35.577Z,5.05
2023-05-07T08:35:35.537Z,5.52
2023-05-07T08:36:35.505Z,5.63
2023-05-07T08:37:35.470Z,4.96
2023-05-07T08:38:35.448Z,4.77
2023-05-07T08:39:35.404Z,4.45
2023-05-07T08:40:35.378Z,5.31
2023-05-07T08:41:35.335Z,4.51
2023-05-07T08:42:35.273Z,4.94
2023-05-07T08:43:35.319Z,4.86
2023-05-07T08:44:35.166Z,4.82
2023-05-07T08:45:35.110Z,4.57
2023-05-07T08:46:35.061Z,4.30
2023-05-07T08:47:34.971Z,4.33
2023-05-07T08:48:34.907Z,5.45
2023-05-07T08:49:34.820Z,6.25
2023-05-07T08:50:34.716Z,6.25
2023-05-07T08:51:34.632Z,5.73
2023-05-07T08:52:34.557Z,5.47
2023-05-07T08:53:34.484Z,4.36
2023-05-07T08:54:34.389Z,4.14
2023-05-07T08:55:34.365Z,3.98
2023-05-07T08:56:34.318Z,3.24
2023-05-07T08:57:34.239Z,3.09
2023-05-07T08:58:34.197Z,3.07
2023-05-07T08:59:34.176Z,2.53
2023-05-07T09:00:33.992Z,2.86
2023-05-07T09:01:33.980Z,2.67
2023-05-07T09:02:33.878Z,3.35
2023-05-07T09:03:33.744Z,2.69
2023-05-07T09:04:33.595Z,2.98
2023-05-07T09:05:33.516Z,2.37
2023-05-07T09:06:33.374Z,2.99
2023-05-07T09:07:33.268Z,4.42
2023-05-07T09:08:33.187Z,7.71
2023-05-07T09:09:33.111Z,11.02
2023-05-07T09:10:33.021Z,5.87
2023-05-07T09:11:32.935Z,4.46
2023-05-07T09:12:32.863Z,3.71
2023-05-07T09:13:32.756Z,3.75
2023-05-07T09:14:32.668Z,2.92
2023-05-07T09:15:32.696Z,3.09
2023-05-07T09:16:32.601Z,3.24
2023-05-07T09:17:32.519Z,2.69
2023-05-07T09:18:32.387Z,3.11
2023-05-07T09:19:32.261Z,2.83
2023-05-07T09:20:32.169Z,3.24
2023-05-07T09:21:32.812Z,2.47
2023-05-07T09:22:31.956Z,2.95
2023-05-07T09:23:31.829Z,3.09
2023-05-07T09:24:31.721Z,2.78
2023-05-07T09:25:31.627Z,3.03
2023-05-07T09:26:31.550Z,2.78
2023-05-07T09:27:31.476Z,2.86
2023-05-07T09:28:34.106Z,2.84
2023-05-07T09:29:31.273Z,2.77
2023-05-07T09:30:31.090Z,2.38
2023-05-07T09:31:31.085Z,2.61
2023-05-07T09:32:30.862Z,2.47
2023-05-07T09:33:30.681Z,2.26
2023-05-07T09:34:30.527Z,2.22
2023-05-07T09:35:30.384Z,2.26
2023-05-07T09:36:30.245Z,2.31
2023-05-07T09:37:30.091Z,2.09
2023-05-07T09:38:29.953Z,2.27
2023-05-07T09:39:29.813Z,1.91
2023-05-07T09:40:29.660Z,2.45
2023-05-07T09:41:29.507Z,2.68
2023-05-07T09:42:29.360Z,2.16
2023-05-07T09:43:29.212Z,2.35
2023-05-07T09:44:29.046Z,2.56
2023-05-07T09:45:28.937Z,2.21
2023-05-07T09:46:28.729Z,2.15
2023-05-07T09:47:28.659Z,2.23
2023-05-07T09:48:28.449Z,2.02
2023-05-07T09:49:28.287Z,2.14
2023-05-07T09:50:28.130Z,1.84
2023-05-07T09:51:28.099Z,1.83
2023-05-07T09:52:27.822Z,2.15
2023-05-07T09:53:27.693Z,1.96
2023-05-07T09:54:27.537Z,1.90
2023-05-07T09:55:27.369Z,2.20
2023-05-07T09:56:27.210Z,2.12
2023-05-07T09:57:27.067Z,2.06
2023-05-07T09:58:26.927Z,2.09
2023-05-07T09:59:30.148Z,2.20
2023-05-07T10:00:26.638Z,2.39
2023-05-07T10:01:26.486Z,2.61
2023-05-07T10:02:26.405Z,2.72
2023-05-07T10:03:26.336Z,2.53
2023-05-07T10:04:26.013Z,2.45
2023-05-07T10:05:25.860Z,2.66
2023-05-07T10:06:25.708Z,2.35
2023-05-07T10:07:25.552Z,2.80
2023-05-07T10:08:25.388Z,2.27
2023-05-07T10:09:25.231Z,2.98
2023-05-07T10:10:25.080Z,2.81
2023-05-07T10:11:24.912Z,2.78
2023-05-07T10:12:24.753Z,3.01
2023-05-07T10:13:24.609Z,2.64
2023-05-07T10:14:24.468Z,2.31
2023-05-07T10:15:24.294Z,2.07
2023-05-07T10:16:24.148Z,2.47
2023-05-07T10:17:24.128Z,2.59
2023-05-07T10:18:23.987Z,2.04
2023-05-07T10:19:23.846Z,2.56
2023-05-07T10:20:23.598Z,2.06
2023-05-07T10:21:23.439Z,2.15
2023-05-07T10:22:23.282Z,2.32
2023-05-07T10:23:23.142Z,2.19
2023-05-07T10:24:22.999Z,2.25
2023-05-07T10:25:22.828Z,2.33
2023-05-07T10:26:22.695Z,2.79
2023-05-07T10:27:22.574Z,2.36
2023-05-07T10:28:22.503Z,2.48
2023-05-07T10:29:22.345Z,2.43
2023-05-07T10:30:22.263Z,2.14
2023-05-07T10:31:22.230Z,2.18
2023-05-07T10:32:22.098Z,2.47
2023-05-07T10:33:22.011Z,2.48
2023-05-07T10:34:21.924Z,2.16
2023-05-07T10:35:21.991Z,2.26
2023-05-07T10:36:21.780Z,2.59
2023-05-07T10:37:21.659Z,2.28
2023-05-07T10:38:21.629Z,2.26
2023-05-07T10:39:21.536Z,2.19
2023-05-07T10:40:21.440Z,2.46
2023-05-07T10:41:21.330Z,2.42
2023-05-07T10:42:21.222Z,2.23
2023-05-07T10:43:21.091Z,2.43
2023-05-07T10:44:20.980Z,2.37
2023-05-07T10:45:20.870Z,2.14
2023-05-07T10:46:20.862Z,1.99
2023-05-07T10:47:20.725Z,1.99
2023-05-07T10:48:30.296Z,2.43
2023-05-07T10:49:21.719Z,2.16
2023-05-07T10:50:20.339Z,2.19
2023-05-07T10:51:20.316Z,2.31
2023-05-07T10:52:20.009Z,1.75
2023-05-07T10:53:19.941Z,1.89
2023-05-07T10:54:19.750Z,2.24
2023-05-07T10:55:19.627Z,1.98
2023-05-07T10:56:21.030Z,2.35
2023-05-07T10:57:19.491Z,2.10
2023-05-07T10:58:30.044Z,2.23
2023-05-07T10:59:19.311Z,1.87
2023-05-07T11:00:25.301Z,2.25
2023-05-07T11:01:19.136Z,2.28
2023-05-07T11:02:18.993Z,2.22
2023-05-07T11:03:18.860Z,2.28
2023-05-07T11:04:18.860Z,2.07
2023-05-07T11:05:18.744Z,2.55
2023-05-07T11:06:18.556Z,2.77
2023-05-07T11:07:18.493Z,2.58
2023-05-07T11:08:19.049Z,2.93
2023-05-07T11:09:18.345Z,2.44
2023-05-07T11:10:18.278Z,2.49
2023-05-07T11:11:18.211Z,2.70
2023-05-07T11:12:18.134Z,2.55
2023-05-07T11:13:18.082Z,2.70
2023-05-07T11:14:18.004Z,3.01
2023-05-07T11:15:17.933Z,2.67
2023-05-07T11:16:17.889Z,2.85
2023-05-07T11:17:17.789Z,2.72
2023-05-07T11:18:17.718Z,3.16
2023-05-07T11:19:17.656Z,2.64
2023-05-07T11:20:17.583Z,3.28
2023-05-07T11:21:17.515Z,2.67
2023-05-07T11:22:17.437Z,2.56
2023-05-07T11:23:17.471Z,3.07
2023-05-07T11:24:17.307Z,2.66
2023-05-07T11:25:17.256Z,2.82
2023-05-07T11:26:17.185Z,2.35
2023-05-07T11:27:17.151Z,3.04
2023-05-07T11:28:17.074Z,2.52
2023-05-07T11:29:18.844Z,2.62
2023-05-07T11:30:16.957Z,2.62
2023-05-07T11:31:16.929Z,2.71
2023-05-07T11:32:16.895Z,2.99
2023-05-07T11:33:16.865Z,2.83
2023-05-07T11:34:16.796Z,3.13
2023-05-07T11:35:16.803Z,2.61
2023-05-07T11:36:16.709Z,2.87
2023-05-07T11:37:16.660Z,2.68
2023-05-07T11:38:16.599Z,3.45
2023-05-07T11:39:16.573Z,2.74
2023-05-07T11:40:16.496Z,3.24
2023-05-07T11:41:16.426Z,3.29
2023-05-07T11:42:16.374Z,3.20
2023-05-07T11:43:16.329Z,3.13
2023-05-07T11:44:16.272Z,3.48
2023-05-07T11:45:16.237Z,3.15
2023-05-07T11:46:16.244Z,2.97
2023-05-07T11:47:16.111Z,2.92
2023-05-07T11:48:16.059Z,3.05
2023-05-07T11:49:15.999Z,2.74
2023-05-07T11:50:15.943Z,3.02
2023-05-07T11:51:15.903Z,3.42
2023-05-07T11:52:15.825Z,3.29
2023-05-07T11:53:15.766Z,3.19
2023-05-07T11:54:15.755Z,2.70
2023-05-07T11:55:15.749Z,3.65
2023-05-07T11:56:15.717Z,3.69
2023-05-07T11:57:15.703Z,3.68
2023-05-07T11:58:15.677Z,3.15
2023-05-07T11:59:15.676Z,3.39
2023-05-07T12:00:15.691Z,3.59
2023-05-07T12:01:15.680Z,3.25
2023-05-07T12:02:15.676Z,3.20
2023-05-07T12:03:15.736Z,3.04
2023-05-07T12:04:15.893Z,3.06
2023-05-07T12:05:15.765Z,3.29
2023-05-07T12:06:15.663Z,2.88
2023-05-07T12:07:15.637Z,3.11
2023-05-07T12:08:15.588Z,2.31
2023-05-07T12:09:15.554Z,2.53
2023-05-07T12:10:15.541Z,2.56
2023-05-07T12:11:15.551Z,2.90
2023-05-07T12:12:15.508Z,2.38
2023-05-07T12:13:15.631Z,2.70
2023-05-07T12:14:15.525Z,2.59
2023-05-07T12:15:15.540Z,2.56
2023-05-07T12:16:15.524Z,2.81
2023-05-07T12:17:15.701Z,2.61
2023-05-07T12:18:15.554Z,2.25
2023-05-07T12:19:16.079Z,2.63
2023-05-07T12:20:15.563Z,2.37
2023-05-07T12:21:15.592Z,2.06
2023-05-07T12:22:15.607Z,1.65
2023-05-07T12:23:15.629Z,2.17
2023-05-07T12:24:15.636Z,1.73
2023-05-07T12:25:15.858Z,1.73
2023-05-07T12:26:15.630Z,2.42
2023-05-07T12:27:15.677Z,1.71
2023-05-07T12:28:15.567Z,1.81
2023-05-07T12:29:15.532Z,2.26
2023-05-07T12:30:15.520Z,2.13
2023-05-07T12:31:15.677Z,2.18
2023-05-07T12:32:15.537Z,2.17
2023-05-07T12:33:15.515Z,2.27
2023-05-07T12:34:15.505Z,2.04
2023-05-07T12:35:15.499Z,1.85
2023-05-07T12:36:15.502Z,1.90
2023-05-07T12:37:15.446Z,1.89
2023-05-07T12:38:15.409Z,2.10
2023-05-07T12:39:15.380Z,1.98
2023-05-07T12:40:15.408Z,1.57
2023-05-07T12:41:15.422Z,1.52
2023-05-07T12:42:15.397Z,2.18
2023-05-07T12:43:15.383Z,1.83
2023-05-07T12:44:15.373Z,1.85
2023-05-07T12:45:15.574Z,1.77
2023-05-07T12:46:15.355Z,2.21
2023-05-07T12:47:15.310Z,1.98
2023-05-07T12:48:15.252Z,2.08
2023-05-07T12:49:15.197Z,2.34
2023-05-07T12:50:15.201Z,2.20
2023-05-07T12:51:15.158Z,2.23
2023-05-07T12:52:15.085Z,1.96
2023-05-07T12:53:15.072Z,1.81
2023-05-07T12:54:15.028Z,2.10
2023-05-07T12:55:15.008Z,2.10
2023-05-07T12:56:14.932Z,2.00
2023-05-07T12:57:14.855Z,2.15
2023-05-07T12:58:14.801Z,1.80
2023-05-07T12:59:14.775Z,2.20
2023-05-07T13:00:14.678Z,1.67
2023-05-07T13:01:14.642Z,1.55
2023-05-07T13:02:14.571Z,2.01
2023-05-07T13:03:14.678Z,1.81
2023-05-07T13:04:14.511Z,1.84
2023-05-07T13:05:14.654Z,1.32
2023-05-07T13:06:14.387Z,1.81
2023-05-07T13:07:14.340Z,1.54
2023-05-07T13:08:14.313Z,1.93
2023-05-07T13:09:14.278Z,1.41
2023-05-07T13:10:14.301Z,1.49
2023-05-07T13:11:14.305Z,1.80
2023-05-07T13:12:14.261Z,1.77
2023-05-07T13:13:14.284Z,1.26
2023-05-07T13:14:14.205Z,1.65
2023-05-07T13:15:14.275Z,1.80
2023-05-07T13:16:14.122Z,1.95